sensor_id;sensor_type;location;lat;lon;timestamp;pressure;altitude;pressure_sealevel;temperature;humidity
4745;BME280;2386;42.138;24.746;2023-02-13T00:02:15;101520.66;;;6.78;60.08
4745;BME280;2386;42.138;24.746;2023-02-13T00:04:40;101530.47;;;6.87;61.39
4745;BME280;2386;42.138;24.746;2023-02-13T00:07:09;101529.25;;;6.81;60.03
4745;BME280;2386;42.138;24.746;2023-02-13T00:09:38;101535.88;;;6.87;60.80
4745;BME280;2386;42.138;24.746;2023-02-13T00:12:05;101530.38;;;6.71;61.63
4745;BME280;2386;42.138;24.746;2023-02-13T00:14:34;101532.22;;;6.70;61.21
4745;BME280;2386;42.138;24.746;2023-02-13T00:16:59;101535.59;;;6.64;61.33
4745;BME280;2386;42.138;24.746;2023-02-13T00:19:25;101541.13;;;6.63;61.93
4745;BME280;2386;42.138;24.746;2023-02-13T00:21:50;101536.38;;;6.56;62.17
4745;BME280;2386;42.138;24.746;2023-02-13T00:24:15;101544.84;;;6.62;62.74
4745;BME280;2386;42.138;24.746;2023-02-13T00:26:41;101542.78;;;6.55;61.11
4745;BME280;2386;42.138;24.746;2023-02-13T00:29:06;101556.94;;;6.57;61.84
4745;BME280;2386;42.138;24.746;2023-02-13T00:31:31;101552.34;;;6.50;61.59
4745;BME280;2386;42.138;24.746;2023-02-13T00:33:57;101555.47;;;6.63;61.12
4745;BME280;2386;42.138;24.746;2023-02-13T00:36:24;101552.88;;;6.53;62.49
4745;BME280;2386;42.138;24.746;2023-02-13T00:38:50;101548.56;;;6.43;62.00
4745;BME280;2386;42.138;24.746;2023-02-13T00:41:16;101555.72;;;6.34;62.83
4745;BME280;2386;42.138;24.746;2023-02-13T00:43:42;101555.50;;;6.45;63.14
4745;BME280;2386;42.138;24.746;2023-02-13T00:46:08;101555.19;;;6.48;62.76
4745;BME280;2386;42.138;24.746;2023-02-13T00:48:34;101546.72;;;6.43;63.57
4745;BME280;2386;42.138;24.746;2023-02-13T00:51:00;101542.47;;;6.41;63.58
4745;BME280;2386;42.138;24.746;2023-02-13T00:53:26;101549.25;;;6.45;63.37
4745;BME280;2386;42.138;24.746;2023-02-13T00:55:52;101547.03;;;6.40;63.06
4745;BME280;2386;42.138;24.746;2023-02-13T00:58:18;101546.41;;;6.46;63.07
4745;BME280;2386;42.138;24.746;2023-02-13T01:00:44;101545.28;;;6.31;63.25
4745;BME280;2386;42.138;24.746;2023-02-13T01:03:12;101552.25;;;6.42;63.74
4745;BME280;2386;42.138;24.746;2023-02-13T01:05:37;101549.34;;;6.35;65.03
4745;BME280;2386;42.138;24.746;2023-02-13T01:08:03;101548.66;;;6.33;64.87
4745;BME280;2386;42.138;24.746;2023-02-13T01:10:28;101546.03;;;6.23;65.60
4745;BME280;2386;42.138;24.746;2023-02-13T01:12:53;101554.28;;;6.22;66.41
4745;BME280;2386;42.138;24.746;2023-02-13T01:15:19;101550.97;;;6.10;66.55
4745;BME280;2386;42.138;24.746;2023-02-13T01:17:45;101547.03;;;6.05;66.88
4745;BME280;2386;42.138;24.746;2023-02-13T01:20:12;101540.22;;;5.92;66.99
4745;BME280;2386;42.138;24.746;2023-02-13T01:22:38;101543.88;;;6.09;66.02
4745;BME280;2386;42.138;24.746;2023-02-13T01:25:04;101548.75;;;6.06;66.59
4745;BME280;2386;42.138;24.746;2023-02-13T01:27:30;101547.34;;;6.02;67.71
4745;BME280;2386;42.138;24.746;2023-02-13T01:29:56;101549.34;;;6.00;67.18
4745;BME280;2386;42.138;24.746;2023-02-13T01:32:22;101562.44;;;5.94;67.91
4745;BME280;2386;42.138;24.746;2023-02-13T01:34:47;101561.28;;;5.97;68.22
4745;BME280;2386;42.138;24.746;2023-02-13T01:37:13;101553.03;;;5.99;67.72
4745;BME280;2386;42.138;24.746;2023-02-13T01:39:38;101552.25;;;5.88;68.09
4745;BME280;2386;42.138;24.746;2023-02-13T01:42:08;101561.06;;;5.90;69.12
4745;BME280;2386;42.138;24.746;2023-02-13T01:52:50;101566.25;;;5.74;71.25
4745;BME280;2386;42.138;24.746;2023-02-13T01:55:16;101567.94;;;5.75;69.23
4745;BME280;2386;42.138;24.746;2023-02-13T01:57:48;101569.69;;;5.67;70.77
4745;BME280;2386;42.138;24.746;2023-02-13T02:00:17;101564.75;;;5.62;70.27
4745;BME280;2386;42.138;24.746;2023-02-13T02:02:49;101570.28;;;5.60;69.95
4745;BME280;2386;42.138;24.746;2023-02-13T02:05:17;101575.13;;;5.57;70.61
4745;BME280;2386;42.138;24.746;2023-02-13T02:07:44;101578.75;;;5.66;69.75
4745;BME280;2386;42.138;24.746;2023-02-13T02:10:13;101583.81;;;5.51;71.83
4745;BME280;2386;42.138;24.746;2023-02-13T02:12:54;101579.16;;;5.71;69.76
4745;BME280;2386;42.138;24.746;2023-02-13T02:15:22;101580.09;;;5.79;68.61
4745;BME280;2386;42.138;24.746;2023-02-13T02:17:48;101581.00;;;5.70;70.41
4745;BME280;2386;42.138;24.746;2023-02-13T02:28:21;101595.09;;;5.82;68.38
4745;BME280;2386;42.138;24.746;2023-02-13T02:44:44;101616.69;;;5.17;72.54
4745;BME280;2386;42.138;24.746;2023-02-13T02:47:16;101630.84;;;5.10;73.45
4745;BME280;2386;42.138;24.746;2023-02-13T02:50:14;101623.22;;;5.05;74.22
4745;BME280;2386;42.138;24.746;2023-02-13T02:55:51;101625.66;;;4.99;75.28
4745;BME280;2386;42.138;24.746;2023-02-13T03:01:26;101632.00;;;4.98;74.94
4745;BME280;2386;42.138;24.746;2023-02-13T03:04:25;101639.56;;;4.75;76.64
4745;BME280;2386;42.138;24.746;2023-02-13T03:07:15;101639.97;;;4.70;77.35
4745;BME280;2386;42.138;24.746;2023-02-13T03:09:44;101634.03;;;4.67;77.96
4745;BME280;2386;42.138;24.746;2023-02-13T03:12:36;101636.00;;;4.65;77.72
4745;BME280;2386;42.138;24.746;2023-02-13T03:15:22;101630.94;;;4.61;78.13
4745;BME280;2386;42.138;24.746;2023-02-13T03:17:50;101634.34;;;4.35;80.54
4745;BME280;2386;42.138;24.746;2023-02-13T03:20:54;101632.66;;;4.24;81.54
4745;BME280;2386;42.138;24.746;2023-02-13T03:24:06;101631.78;;;4.14;82.63
4745;BME280;2386;42.138;24.746;2023-02-13T03:26:39;101628.38;;;4.12;82.41
4745;BME280;2386;42.138;24.746;2023-02-13T03:29:45;101643.66;;;4.21;81.80
4745;BME280;2386;42.138;24.746;2023-02-13T03:38:10;101643.75;;;3.90;83.76
4745;BME280;2386;42.138;24.746;2023-02-13T03:40:48;101646.13;;;3.84;84.87
4745;BME280;2386;42.138;24.746;2023-02-13T03:43:48;101644.13;;;3.76;85.40
4745;BME280;2386;42.138;24.746;2023-02-13T03:46:17;101643.28;;;3.66;85.51
4745;BME280;2386;42.138;24.746;2023-02-13T03:48:44;101642.44;;;3.66;86.23
4745;BME280;2386;42.138;24.746;2023-02-13T03:51:56;101648.03;;;3.53;85.51
4745;BME280;2386;42.138;24.746;2023-02-13T03:54:32;101645.88;;;3.16;87.29
4745;BME280;2386;42.138;24.746;2023-02-13T03:57:19;101650.56;;;3.24;88.47
4745;BME280;2386;42.138;24.746;2023-02-13T04:00:07;101648.47;;;3.27;87.84
4745;BME280;2386;42.138;24.746;2023-02-13T04:02:41;101640.28;;;3.29;87.97
4745;BME280;2386;42.138;24.746;2023-02-13T04:05:16;101642.31;;;3.37;87.96
4745;BME280;2386;42.138;24.746;2023-02-13T04:07:44;101645.41;;;3.32;88.05
4745;BME280;2386;42.138;24.746;2023-02-13T04:10:12;101637.56;;;3.19;88.85
4745;BME280;2386;42.138;24.746;2023-02-13T04:15:45;101651.22;;;3.16;88.64
4745;BME280;2386;42.138;24.746;2023-02-13T04:18:20;101640.69;;;3.24;88.08
4745;BME280;2386;42.138;24.746;2023-02-13T04:20:46;101640.78;;;3.13;89.14
4745;BME280;2386;42.138;24.746;2023-02-13T04:23:12;101646.78;;;3.26;88.02
4745;BME280;2386;42.138;24.746;2023-02-13T04:25:39;101650.91;;;3.10;89.03
4745;BME280;2386;42.138;24.746;2023-02-13T04:28:07;101646.09;;;3.04;89.77
4745;BME280;2386;42.138;24.746;2023-02-13T04:30:33;101648.28;;;3.19;88.82
4745;BME280;2386;42.138;24.746;2023-02-13T04:32:58;101642.22;;;3.17;88.58
4745;BME280;2386;42.138;24.746;2023-02-13T04:35:24;101638.09;;;3.13;88.75
4745;BME280;2386;42.138;24.746;2023-02-13T04:37:49;101641.16;;;3.29;88.60
4745;BME280;2386;42.138;24.746;2023-02-13T04:40:15;101640.34;;;3.39;87.47
4745;BME280;2386;42.138;24.746;2023-02-13T04:42:40;101638.69;;;3.47;87.18
4745;BME280;2386;42.138;24.746;2023-02-13T04:45:06;101643.97;;;3.58;86.52
4745;BME280;2386;42.138;24.746;2023-02-13T04:47:31;101653.03;;;3.67;85.62
4745;BME280;2386;42.138;24.746;2023-02-13T04:49:56;101658.97;;;3.71;84.09
4745;BME280;2386;42.138;24.746;2023-02-13T04:52:22;101653.16;;;3.75;83.77
4745;BME280;2386;42.138;24.746;2023-02-13T04:54:47;101665.41;;;3.58;84.31
4745;BME280;2386;42.138;24.746;2023-02-13T04:57:13;101657.94;;;3.62;83.78
4745;BME280;2386;42.138;24.746;2023-02-13T04:59:39;101668.16;;;3.68;83.32
4745;BME280;2386;42.138;24.746;2023-02-13T05:02:04;101658.53;;;3.75;81.93
4745;BME280;2386;42.138;24.746;2023-02-13T05:04:30;101659.09;;;3.69;82.46
4745;BME280;2386;42.138;24.746;2023-02-13T05:06:55;101652.22;;;3.46;83.51
4745;BME280;2386;42.138;24.746;2023-02-13T05:09:21;101667.34;;;3.47;83.64
4745;BME280;2386;42.138;24.746;2023-02-13T05:11:46;101669.22;;;3.56;83.37
4745;BME280;2386;42.138;24.746;2023-02-13T05:14:14;101669.06;;;3.27;84.38
4745;BME280;2386;42.138;24.746;2023-02-13T05:16:40;101661.63;;;3.10;85.50
4745;BME280;2386;42.138;24.746;2023-02-13T05:19:05;101675.69;;;3.23;85.35
4745;BME280;2386;42.138;24.746;2023-02-13T05:21:30;101675.59;;;3.34;84.16
4745;BME280;2386;42.138;24.746;2023-02-13T05:24:14;101674.69;;;3.45;83.51
4745;BME280;2386;42.138;24.746;2023-02-13T05:26:39;101682.47;;;3.48;82.71
4745;BME280;2386;42.138;24.746;2023-02-13T05:29:05;101680.63;;;3.48;82.02
4745;BME280;2386;42.138;24.746;2023-02-13T05:31:43;101679.31;;;3.43;82.26
4745;BME280;2386;42.138;24.746;2023-02-13T05:34:08;101692.03;;;3.41;83.02
4745;BME280;2386;42.138;24.746;2023-02-13T05:36:34;101695.16;;;3.46;82.78
4745;BME280;2386;42.138;24.746;2023-02-13T05:38:59;101708.00;;;3.21;82.69
4745;BME280;2386;42.138;24.746;2023-02-13T05:41:25;101698.97;;;3.22;82.56
4745;BME280;2386;42.138;24.746;2023-02-13T05:43:50;101708.53;;;3.15;84.90
4745;BME280;2386;42.138;24.746;2023-02-13T05:46:15;101714.34;;;3.20;84.25
4745;BME280;2386;42.138;24.746;2023-02-13T05:48:41;101714.78;;;3.25;83.85
4745;BME280;2386;42.138;24.746;2023-02-13T05:51:06;101727.28;;;3.15;85.60
4745;BME280;2386;42.138;24.746;2023-02-13T05:53:32;101708.19;;;3.29;83.81
4745;BME280;2386;42.138;24.746;2023-02-13T05:56:01;101710.88;;;3.29;83.45
4745;BME280;2386;42.138;24.746;2023-02-13T05:58:27;101722.72;;;3.27;84.27
4745;BME280;2386;42.138;24.746;2023-02-13T06:00:55;101727.59;;;3.43;82.90
4745;BME280;2386;42.138;24.746;2023-02-13T06:03:22;101719.88;;;3.49;82.83
4745;BME280;2386;42.138;24.746;2023-02-13T06:05:47;101720.00;;;3.48;82.61
4745;BME280;2386;42.138;24.746;2023-02-13T06:08:13;101725.13;;;3.51;82.77
4745;BME280;2386;42.138;24.746;2023-02-13T06:10:38;101718.91;;;3.50;82.00
4745;BME280;2386;42.138;24.746;2023-02-13T06:13:03;101734.22;;;3.39;82.80
4745;BME280;2386;42.138;24.746;2023-02-13T06:15:29;101725.56;;;3.56;81.59
4745;BME280;2386;42.138;24.746;2023-02-13T06:17:54;101724.34;;;3.39;82.76
4745;BME280;2386;42.138;24.746;2023-02-13T06:20:20;101721.97;;;3.46;83.80
4745;BME280;2386;42.138;24.746;2023-02-13T06:22:49;101717.41;;;3.37;84.62
4745;BME280;2386;42.138;24.746;2023-02-13T06:25:15;101728.34;;;3.24;85.59
4745;BME280;2386;42.138;24.746;2023-02-13T06:27:40;101733.91;;;3.11;85.07
4745;BME280;2386;42.138;24.746;2023-02-13T06:30:06;101737.63;;;3.20;85.98
4745;BME280;2386;42.138;24.746;2023-02-13T06:32:32;101739.59;;;3.39;85.59
4745;BME280;2386;42.138;24.746;2023-02-13T06:34:57;101729.97;;;3.36;85.87
4745;BME280;2386;42.138;24.746;2023-02-13T06:37:23;101726.38;;;3.47;84.80
4745;BME280;2386;42.138;24.746;2023-02-13T06:39:48;101725.13;;;3.51;84.39
4745;BME280;2386;42.138;24.746;2023-02-13T06:42:14;101724.22;;;3.41;84.62
4745;BME280;2386;42.138;24.746;2023-02-13T06:44:39;101722.13;;;3.23;85.07
4745;BME280;2386;42.138;24.746;2023-02-13T06:47:04;101725.41;;;3.27;86.26
4745;BME280;2386;42.138;24.746;2023-02-13T06:49:30;101724.22;;;3.41;85.85
4745;BME280;2386;42.138;24.746;2023-02-13T06:51:55;101723.88;;;3.34;85.81
4745;BME280;2386;42.138;24.746;2023-02-13T06:54:21;101731.84;;;3.45;85.11
4745;BME280;2386;42.138;24.746;2023-02-13T06:56:46;101725.56;;;3.56;85.01
4745;BME280;2386;42.138;24.746;2023-02-13T06:59:11;101721.50;;;3.61;84.34
4745;BME280;2386;42.138;24.746;2023-02-13T07:01:37;101731.56;;;3.69;84.08
4745;BME280;2386;42.138;24.746;2023-02-13T07:04:02;101731.72;;;3.77;82.91
4745;BME280;2386;42.138;24.746;2023-02-13T07:06:28;101723.84;;;3.85;82.92
4745;BME280;2386;42.138;24.746;2023-02-13T07:08:53;101716.69;;;4.05;81.00
4745;BME280;2386;42.138;24.746;2023-02-13T07:11:21;101713.13;;;3.95;81.00
4745;BME280;2386;42.138;24.746;2023-02-13T07:13:47;101714.22;;;3.83;81.72
4745;BME280;2386;42.138;24.746;2023-02-13T07:16:13;101712.59;;;4.01;82.28
4745;BME280;2386;42.138;24.746;2023-02-13T07:18:38;101706.94;;;4.04;81.57
4745;BME280;2386;42.138;24.746;2023-02-13T07:21:04;101720.50;;;4.03;81.43
4745;BME280;2386;42.138;24.746;2023-02-13T07:23:29;101715.69;;;3.96;80.97
4745;BME280;2386;42.138;24.746;2023-02-13T07:25:58;101719.16;;;4.18;79.69
4745;BME280;2386;42.138;24.746;2023-02-13T07:28:24;101714.91;;;4.25;79.38
4745;BME280;2386;42.138;24.746;2023-02-13T07:30:49;101709.00;;;4.31;79.77
4745;BME280;2386;42.138;24.746;2023-02-13T07:33:15;101717.75;;;4.52;78.42
4745;BME280;2386;42.138;24.746;2023-02-13T07:35:46;101722.59;;;4.58;77.41
4745;BME280;2386;42.138;24.746;2023-02-13T07:38:11;101718.91;;;4.59;76.98
4745;BME280;2386;42.138;24.746;2023-02-13T07:40:37;101731.91;;;4.54;76.50
4745;BME280;2386;42.138;24.746;2023-02-13T07:43:02;101719.16;;;4.47;76.70
4745;BME280;2386;42.138;24.746;2023-02-13T07:45:28;101723.56;;;4.38;77.06
4745;BME280;2386;42.138;24.746;2023-02-13T07:47:57;101716.47;;;4.47;77.49
4745;BME280;2386;42.138;24.746;2023-02-13T07:50:22;101712.94;;;4.46;76.65
4745;BME280;2386;42.138;24.746;2023-02-13T07:52:59;101722.16;;;4.53;76.82
4745;BME280;2386;42.138;24.746;2023-02-13T07:55:25;101722.16;;;4.73;77.40
4745;BME280;2386;42.138;24.746;2023-02-13T07:57:51;101714.38;;;4.79;76.91
4745;BME280;2386;42.138;24.746;2023-02-13T08:00:17;101722.59;;;4.97;76.08
4745;BME280;2386;42.138;24.746;2023-02-13T08:02:43;101713.53;;;5.17;75.02
4745;BME280;2386;42.138;24.746;2023-02-13T08:05:09;101711.81;;;5.16;74.88
4745;BME280;2386;42.138;24.746;2023-02-13T08:07:35;101715.81;;;4.83;74.51
4745;BME280;2386;42.138;24.746;2023-02-13T08:10:00;101708.16;;;4.88;74.71
4745;BME280;2386;42.138;24.746;2023-02-13T08:12:45;101723.72;;;5.04;74.61
4745;BME280;2386;42.138;24.746;2023-02-13T08:15:13;101717.66;;;4.92;73.95
4745;BME280;2386;42.138;24.746;2023-02-13T08:17:38;101713.53;;;4.88;74.69
4745;BME280;2386;42.138;24.746;2023-02-13T08:20:05;101715.22;;;4.99;74.97
4745;BME280;2386;42.138;24.746;2023-02-13T08:22:35;101707.44;;;5.15;74.82
4745;BME280;2386;42.138;24.746;2023-02-13T08:25:01;101702.91;;;5.06;74.07
4745;BME280;2386;42.138;24.746;2023-02-13T08:27:26;101696.53;;;5.07;74.54
4745;BME280;2386;42.138;24.746;2023-02-13T08:29:55;101705.84;;;5.22;74.21
4745;BME280;2386;42.138;24.746;2023-02-13T08:32:21;101710.31;;;5.41;73.33
4745;BME280;2386;42.138;24.746;2023-02-13T08:34:46;101701.97;;;5.44;73.36
4745;BME280;2386;42.138;24.746;2023-02-13T08:37:12;101702.94;;;5.53;72.47
4745;BME280;2386;42.138;24.746;2023-02-13T08:39:37;101696.69;;;5.52;72.90
4745;BME280;2386;42.138;24.746;2023-02-13T08:42:03;101696.06;;;5.68;72.37
4745;BME280;2386;42.138;24.746;2023-02-13T08:44:28;101696.28;;;5.84;71.95
4745;BME280;2386;42.138;24.746;2023-02-13T08:46:54;101706.56;;;5.99;70.58
4745;BME280;2386;42.138;24.746;2023-02-13T08:49:19;101693.75;;;5.83;69.77
4745;BME280;2386;42.138;24.746;2023-02-13T08:51:45;101682.44;;;5.79;70.50
4745;BME280;2386;42.138;24.746;2023-02-13T08:54:10;101696.09;;;5.96;70.03
4745;BME280;2386;42.138;24.746;2023-02-13T08:56:36;101688.00;;;5.96;68.82
4745;BME280;2386;42.138;24.746;2023-02-13T08:59:01;101685.66;;;6.10;69.27
4745;BME280;2386;42.138;24.746;2023-02-13T09:01:26;101698.09;;;6.21;69.47
4745;BME280;2386;42.138;24.746;2023-02-13T09:03:52;101684.78;;;6.37;68.33
4745;BME280;2386;42.138;24.746;2023-02-13T09:06:17;101681.88;;;6.48;67.44
4745;BME280;2386;42.138;24.746;2023-02-13T09:08:43;101675.66;;;6.66;66.48
4745;BME280;2386;42.138;24.746;2023-02-13T09:11:09;101675.94;;;6.63;66.30
4745;BME280;2386;42.138;24.746;2023-02-13T09:13:35;101676.00;;;6.71;65.39
4745;BME280;2386;42.138;24.746;2023-02-13T09:16:05;101677.34;;;6.67;65.98
4745;BME280;2386;42.138;24.746;2023-02-13T09:18:32;101678.69;;;6.71;65.48
4745;BME280;2386;42.138;24.746;2023-02-13T09:21:05;101669.25;;;6.67;65.25
4745;BME280;2386;42.138;24.746;2023-02-13T09:23:36;101661.25;;;6.83;65.25
4745;BME280;2386;42.138;24.746;2023-02-13T09:26:04;101662.19;;;6.74;63.87
4745;BME280;2386;42.138;24.746;2023-02-13T09:28:31;101653.72;;;6.69;65.55
4745;BME280;2386;42.138;24.746;2023-02-13T09:30:57;101654.03;;;6.83;64.84
4745;BME280;2386;42.138;24.746;2023-02-13T09:33:23;101647.41;;;6.78;64.37
4745;BME280;2386;42.138;24.746;2023-02-13T09:35:48;101643.38;;;6.82;64.19
4745;BME280;2386;42.138;24.746;2023-02-13T09:38:14;101649.38;;;6.93;63.69
4745;BME280;2386;42.138;24.746;2023-02-13T09:43:27;101637.38;;;7.14;63.79
4745;BME280;2386;42.138;24.746;2023-02-13T09:45:57;101630.88;;;7.24;62.51
4745;BME280;2386;42.138;24.746;2023-02-13T09:48:35;101628.81;;;7.18;62.07
4745;BME280;2386;42.138;24.746;2023-02-13T09:51:02;101625.53;;;7.33;60.89
4745;BME280;2386;42.138;24.746;2023-02-13T09:53:28;101618.50;;;7.40;59.94
4745;BME280;2386;42.138;24.746;2023-02-13T09:56:12;101613.31;;;7.54;59.95
4745;BME280;2386;42.138;24.746;2023-02-13T09:58:57;101615.19;;;7.62;59.47
4745;BME280;2386;42.138;24.746;2023-02-13T10:01:29;101600.34;;;7.66;59.24
4745;BME280;2386;42.138;24.746;2023-02-13T10:04:24;101598.56;;;7.83;58.77
4745;BME280;2386;42.138;24.746;2023-02-13T10:07:16;101596.38;;;7.86;57.87
4745;BME280;2386;42.138;24.746;2023-02-13T10:09:50;101580.16;;;7.86;57.51
4745;BME280;2386;42.138;24.746;2023-02-13T10:15:13;101580.03;;;7.96;56.94
4745;BME280;2386;42.138;24.746;2023-02-13T10:17:58;101577.00;;;8.07;56.78
4745;BME280;2386;42.138;24.746;2023-02-13T10:20:41;101574.81;;;8.03;55.90
4745;BME280;2386;42.138;24.746;2023-02-13T10:23:29;101566.53;;;8.12;55.48
4745;BME280;2386;42.138;24.746;2023-02-13T10:26:03;101560.31;;;8.36;55.61
4745;BME280;2386;42.138;24.746;2023-02-13T10:28:58;101560.66;;;8.49;54.46
4745;BME280;2386;42.138;24.746;2023-02-13T10:31:47;101555.94;;;8.43;55.05
4745;BME280;2386;42.138;24.746;2023-02-13T10:34:15;101540.38;;;8.45;54.99
4745;BME280;2386;42.138;24.746;2023-02-13T10:36:44;101540.72;;;8.50;54.91
4745;BME280;2386;42.138;24.746;2023-02-13T10:39:26;101538.84;;;8.59;54.31
4745;BME280;2386;42.138;24.746;2023-02-13T10:42:44;101532.25;;;8.70;54.30
4745;BME280;2386;42.138;24.746;2023-02-13T10:48:16;101519.66;;;8.93;52.61
4745;BME280;2386;42.138;24.746;2023-02-13T10:51:03;101514.63;;;8.90;52.27
4745;BME280;2386;42.138;24.746;2023-02-13T11:02:25;101493.19;;;9.19;50.33
4745;BME280;2386;42.138;24.746;2023-02-13T11:04:56;101472.84;;;9.23;52.00
4745;BME280;2386;42.138;24.746;2023-02-13T11:07:23;101484.28;;;9.42;50.69
4745;BME280;2386;42.138;24.746;2023-02-13T11:09:57;101472.41;;;9.43;49.08
4745;BME280;2386;42.138;24.746;2023-02-13T11:12:30;101470.88;;;9.48;49.96
4745;BME280;2386;42.138;24.746;2023-02-13T11:15:05;101468.47;;;9.53;48.37
4745;BME280;2386;42.138;24.746;2023-02-13T11:17:34;101462.38;;;9.51;48.36
4745;BME280;2386;42.138;24.746;2023-02-13T11:20:06;101459.31;;;9.54;48.27
4745;BME280;2386;42.138;24.746;2023-02-13T11:22:33;101455.06;;;9.60;47.99
4745;BME280;2386;42.138;24.746;2023-02-13T11:25:20;101447.50;;;9.70;48.13
4745;BME280;2386;42.138;24.746;2023-02-13T11:27:48;101442.69;;;9.80;48.36
4745;BME280;2386;42.138;24.746;2023-02-13T11:30:34;101433.53;;;9.81;46.99
4745;BME280;2386;42.138;24.746;2023-02-13T11:33:04;101428.59;;;9.85;46.86
4745;BME280;2386;42.138;24.746;2023-02-13T11:35:33;101428.72;;;9.92;47.33
4745;BME280;2386;42.138;24.746;2023-02-13T11:40:40;101422.13;;;10.09;47.55
4745;BME280;2386;42.138;24.746;2023-02-13T11:44:01;101414.84;;;10.09;46.36
4745;BME280;2386;42.138;24.746;2023-02-13T11:46:06;101404.94;;;10.16;46.04
4745;BME280;2386;42.138;24.746;2023-02-13T11:48:32;101400.91;;;10.12;44.92
4745;BME280;2386;42.138;24.746;2023-02-13T11:50:58;101404.84;;;10.10;45.31
4745;BME280;2386;42.138;24.746;2023-02-13T11:53:28;101391.00;;;10.05;45.31
4745;BME280;2386;42.138;24.746;2023-02-13T11:58:33;101385.31;;;10.14;44.91
4745;BME280;2386;42.138;24.746;2023-02-13T12:04:06;101384.03;;;10.25;44.90
4745;BME280;2386;42.138;24.746;2023-02-13T12:06:39;101377.22;;;10.29;44.54
4745;BME280;2386;42.138;24.746;2023-02-13T12:09:11;101374.44;;;10.37;45.12
4745;BME280;2386;42.138;24.746;2023-02-13T12:11:51;101373.59;;;10.37;45.01
4745;BME280;2386;42.138;24.746;2023-02-13T12:14:24;101364.84;;;10.41;43.56
4745;BME280;2386;42.138;24.746;2023-02-13T12:16:59;101357.97;;;10.39;42.87
4745;BME280;2386;42.138;24.746;2023-02-13T12:19:40;101347.38;;;10.44;43.48
4745;BME280;2386;42.138;24.746;2023-02-13T12:35:59;101348.13;;;10.52;41.88
4745;BME280;2386;42.138;24.746;2023-02-13T12:38:40;101330.34;;;10.50;41.80
4745;BME280;2386;42.138;24.746;2023-02-13T12:46:50;101336.59;;;10.65;41.68
4745;BME280;2386;42.138;24.746;2023-02-13T13:05:31;101314.44;;;10.62;40.79
4745;BME280;2386;42.138;24.746;2023-02-13T13:19:50;101306.84;;;10.72;41.43
4745;BME280;2386;42.138;24.746;2023-02-13T13:28:01;101293.94;;;10.59;40.07
4745;BME280;2386;42.138;24.746;2023-02-13T13:30:34;101295.06;;;10.50;40.62
4745;BME280;2386;42.138;24.746;2023-02-13T13:33:09;101285.72;;;10.52;41.22
4745;BME280;2386;42.138;24.746;2023-02-13T13:35:40;101280.94;;;10.54;40.75
4745;BME280;2386;42.138;24.746;2023-02-13T13:38:46;101279.63;;;10.65;40.04
4745;BME280;2386;42.138;24.746;2023-02-13T13:44:22;101278.31;;;10.61;39.88
4745;BME280;2386;42.138;24.746;2023-02-13T13:51:51;101267.44;;;10.61;43.17
4745;BME280;2386;42.138;24.746;2023-02-13T14:21:06;101252.84;;;10.62;41.00
4745;BME280;2386;42.138;24.746;2023-02-13T14:26:57;101242.56;;;10.36;40.68
4745;BME280;2386;42.138;24.746;2023-02-13T14:29:59;101235.31;;;10.43;40.86
4745;BME280;2386;42.138;24.746;2023-02-13T14:33:03;101248.28;;;10.63;41.09
4745;BME280;2386;42.138;24.746;2023-02-13T14:39:19;101241.09;;;10.55;42.83
4745;BME280;2386;42.138;24.746;2023-02-13T14:45:32;101231.25;;;10.54;42.92
4745;BME280;2386;42.138;24.746;2023-02-13T14:51:39;101225.84;;;10.54;43.07
4745;BME280;2386;42.138;24.746;2023-02-13T14:54:38;101236.31;;;10.57;42.85
4745;BME280;2386;42.138;24.746;2023-02-13T14:57:33;101233.31;;;10.52;41.87
4745;BME280;2386;42.138;24.746;2023-02-13T15:06:33;101218.78;;;10.38;42.82
4745;BME280;2386;42.138;24.746;2023-02-13T15:09:03;101210.19;;;10.35;42.66
4745;BME280;2386;42.138;24.746;2023-02-13T15:11:39;101214.97;;;10.33;42.45
4745;BME280;2386;42.138;24.746;2023-02-13T15:17:17;101228.50;;;10.18;41.86
4745;BME280;2386;42.138;24.746;2023-02-13T15:19:49;101225.53;;;10.13;43.26
4745;BME280;2386;42.138;24.746;2023-02-13T15:24:47;101231.97;;;10.12;43.78
4745;BME280;2386;42.138;24.746;2023-02-13T15:27:24;101221.31;;;10.10;44.23
4745;BME280;2386;42.138;24.746;2023-02-13T15:30:15;101223.56;;;10.07;43.79
4745;BME280;2386;42.138;24.746;2023-02-13T15:32:42;101223.75;;;10.05;43.98
4745;BME280;2386;42.138;24.746;2023-02-13T15:35:28;101229.06;;;9.99;43.68
4745;BME280;2386;42.138;24.746;2023-02-13T15:37:55;101226.75;;;9.96;44.65
4745;BME280;2386;42.138;24.746;2023-02-13T15:42:51;101215.34;;;9.85;43.91
4745;BME280;2386;42.138;24.746;2023-02-13T15:45:18;101215.34;;;9.85;44.54
4745;BME280;2386;42.138;24.746;2023-02-13T15:47:45;101213.84;;;9.83;44.84
4745;BME280;2386;42.138;24.746;2023-02-13T15:50:41;101217.56;;;9.82;45.02
4745;BME280;2386;42.138;24.746;2023-02-13T15:53:13;101217.47;;;9.75;45.08
4745;BME280;2386;42.138;24.746;2023-02-13T15:55:40;101219.25;;;9.68;45.35
4745;BME280;2386;42.138;24.746;2023-02-13T15:58:10;101224.84;;;9.67;45.64
4745;BME280;2386;42.138;24.746;2023-02-13T16:00:41;101224.50;;;9.55;46.25
4745;BME280;2386;42.138;24.746;2023-02-13T16:03:12;101219.63;;;9.50;46.54
4745;BME280;2386;42.138;24.746;2023-02-13T16:05:39;101224.19;;;9.50;46.13
4745;BME280;2386;42.138;24.746;2023-02-13T16:08:27;101226.31;;;9.40;46.93
4745;BME280;2386;42.138;24.746;2023-02-13T16:16:33;101222.81;;;9.16;47.61
4745;BME280;2386;42.138;24.746;2023-02-13T16:19:00;101209.22;;;9.02;48.34
4745;BME280;2386;42.138;24.746;2023-02-13T16:21:27;101221.00;;;9.09;48.64
4745;BME280;2386;42.138;24.746;2023-02-13T16:24:03;101221.84;;;9.09;47.66
4745;BME280;2386;42.138;24.746;2023-02-13T16:26:33;101223.78;;;9.01;48.72
4745;BME280;2386;42.138;24.746;2023-02-13T16:29:00;101234.78;;;8.99;48.48
4745;BME280;2386;42.138;24.746;2023-02-13T16:31:26;101236.06;;;8.88;48.21
4745;BME280;2386;42.138;24.746;2023-02-13T16:33:51;101231.88;;;8.86;48.42
4745;BME280;2386;42.138;24.746;2023-02-13T16:36:25;101237.09;;;8.87;48.74
4745;BME280;2386;42.138;24.746;2023-02-13T16:38:51;101243.22;;;8.81;48.83
4745;BME280;2386;42.138;24.746;2023-02-13T16:43:51;101251.22;;;8.75;49.59
4745;BME280;2386;42.138;24.746;2023-02-13T16:46:35;101244.16;;;8.66;49.50